Aérodrome :
LOGIN :

S'inscrire | Disclaimer

   EN    FR    IT 

 










Légende :    VFR   VFR Marginal   IFR   IFR Intensif   IFR Très Intensif
Visi : 
Plafond : 
>= 8 km
>= 3000ft
5 à 8 km
1000 à 3000 ft
1500m à 5 km
500 à 1000 ft
800 à 1500m
200 à 500 ft
< 800m
< 200 ft
Symboles :   Orages  Brouillard  Fortes neiges  Fortes précipitations  Vent > 20 kt
SIGMETs :   Divers  Orages  Givrage  Turbulence  Onde Orograph.  Cendres Volcan.







- Altitude de l'aérodrome : 154 ft
- Code IATA : SZZ


EPSC - Szczecin Goleniow

DERNIER METAR :
  • 160730Z 16005KT CAVOK 21/14 Q1019

METARs EXPIRÉS :
  • 160700Z 15004KT 130V200 CAVOK 20/15 Q1019
  • 160630Z 17003KT 130V220 CAVOK 18/15 Q1019
  • 160600Z 16004KT CAVOK 18/15 Q1019
  • 160530Z VRB02KT CAVOK 18/15 Q1019
  • 160500Z 13004KT CAVOK 15/14 Q1019

TAF TAF EPSC
Valide du 16 à 06h jusqu'au 17 à 06h UTC


160530Z 1606/1706 10004KT CAVOK
BECMG 1609/1612 16010KT
Pas de NOTAMs connus pour ce terrain.



MET'MAP, la Météo Aéronautique d'un coup d'oeil ! - Copyright ORBIFLY Décembre 2007 - Disclaimer

ORBIFLY MET'MAP TEAM :

Programmation & Développement : Alexandra Zaïnal
Conception & Développement : Baudouin d'Aumeries
Co-Programmation & Développement : Marc-Olivier Méhu
Soutien technique & logistique : Manuel Goepfert

Contact : metmap@orbifly.com




SOURCES & CREDITS :

   NOAA